createdAt,value
2023-04-15T00:01:20.339Z,98726.06
2023-04-15T00:03:50.862Z,98731.41
2023-04-15T00:06:17.727Z,98721.50
2023-04-15T00:08:44.528Z,98727.28
2023-04-15T00:11:11.432Z,98719.28
2023-04-15T00:13:38.821Z,98725.00
2023-04-15T00:16:07.744Z,98726.28
2023-04-15T00:18:35.929Z,98720.69
2023-04-15T00:21:03.206Z,98718.84
2023-04-15T00:23:30.126Z,98717.97
2023-04-15T00:25:57.518Z,98718.44
2023-04-15T00:28:24.431Z,98715.16
2023-04-15T00:30:51.622Z,98713.50
2023-04-15T00:33:18.543Z,98705.03
2023-04-15T00:35:45.400Z,98712.88
2023-04-15T00:38:12.684Z,98704.28
2023-04-15T00:40:40.115Z,98698.75
2023-04-15T00:43:07.326Z,98703.25
2023-04-15T00:45:34.501Z,98701.38
2023-04-15T00:48:01.707Z,98707.34
2023-04-15T00:50:28.577Z,98703.03
2023-04-15T00:52:55.379Z,98701.19
2023-04-15T00:55:22.259Z,98703.69
2023-04-15T00:57:49.037Z,98707.19
2023-04-15T01:00:16.820Z,98696.28
2023-04-15T01:02:43.879Z,98701.59
2023-04-15T01:05:10.920Z,98708.97
2023-04-15T01:07:38.129Z,98709.75
2023-04-15T01:10:05.609Z,98701.53
2023-04-15T01:12:34.621Z,98707.69
2023-04-15T01:15:02.685Z,98700.94
2023-04-15T01:17:30.468Z,98703.00
2023-04-15T01:20:00.337Z,98699.91
2023-04-15T01:22:28.059Z,98703.81
2023-04-15T01:25:02.632Z,98695.78
2023-04-15T01:27:29.675Z,98703.38
2023-04-15T01:29:56.402Z,98706.91
2023-04-15T01:32:24.125Z,98698.13
2023-04-15T01:34:51.156Z,98694.78
2023-04-15T01:37:18.073Z,98699.06
2023-04-15T01:39:44.947Z,98692.28
2023-04-15T01:42:11.960Z,98701.16
2023-04-15T01:44:38.776Z,98694.56
2023-04-15T01:47:05.963Z,98687.16
2023-04-15T01:49:33.029Z,98691.69
2023-04-15T01:51:59.853Z,98689.66
2023-04-15T01:54:27.845Z,98689.66
2023-04-15T01:56:54.638Z,98685.13
2023-04-15T01:59:21.924Z,98690.50
2023-04-15T02:01:48.678Z,98685.56
2023-04-15T02:04:17.562Z,98691.28
2023-04-15T02:06:44.916Z,98692.72
2023-04-15T02:09:11.773Z,98688.84
2023-04-15T02:11:39.464Z,98692.53
2023-04-15T02:14:06.625Z,98682.50
2023-04-15T02:16:34.166Z,98681.69
2023-04-15T02:19:01.625Z,98681.69
2023-04-15T02:21:28.720Z,98683.34
2023-04-15T02:23:56.233Z,98681.31
2023-04-15T02:26:23.192Z,98681.69
2023-04-15T02:28:51.597Z,98672.84
2023-04-15T02:31:18.786Z,98671.97
2023-04-15T02:33:45.932Z,98677.09
2023-04-15T02:36:12.723Z,98678.94
2023-04-15T02:38:42.621Z,98681.41
2023-04-15T02:41:10.676Z,98676.25
2023-04-15T02:43:38.234Z,98670.53
2023-04-15T02:46:05.126Z,98669.91
2023-04-15T02:48:32.131Z,98666.22
2023-04-15T02:51:12.808Z,98666.22
2023-04-15T02:53:39.600Z,98663.72
2023-04-15T02:56:06.903Z,98668.84
2023-04-15T02:58:35.055Z,98664.56
2023-04-15T03:01:02.083Z,98669.50
2023-04-15T03:03:29.017Z,98665.59
2023-04-15T03:05:56.038Z,98670.34
2023-04-15T03:08:22.845Z,98668.88
2023-04-15T03:10:49.805Z,98665.59
2023-04-15T03:13:16.744Z,98667.25
2023-04-15T03:15:43.480Z,98662.13
2023-04-15T03:18:10.295Z,98664.16
2023-04-15T03:20:37.528Z,98665.81
2023-04-15T03:23:04.488Z,98666.66
2023-04-15T03:25:31.357Z,98657.22
2023-04-15T03:27:58.711Z,98662.97
2023-04-15T03:30:25.482Z,98663.34
2023-04-15T03:32:52.273Z,98661.31
2023-04-15T03:35:19.024Z,98668.06
2023-04-15T03:37:45.907Z,98662.13
2023-04-15T03:40:13.194Z,98665.19
2023-04-15T03:42:39.943Z,98661.47
2023-04-15T03:45:07.941Z,98661.44
2023-04-15T03:47:34.901Z,98665.75
2023-04-15T03:50:01.920Z,98667.41
2023-04-15T03:52:28.924Z,98671.94
2023-04-15T03:54:56.267Z,98668.66
2023-04-15T03:57:23.041Z,98667.41
2023-04-15T03:59:49.853Z,98664.97
2023-04-15T04:02:16.673Z,98671.13
2023-04-15T04:04:44.068Z,98669.28
2023-04-15T04:07:18.612Z,98667.41
2023-04-15T04:09:47.149Z,98669.44
2023-04-15T04:12:14.457Z,98666.75
2023-04-15T04:14:41.379Z,98673.09
2023-04-15T04:17:08.268Z,98668.97
2023-04-15T04:19:35.534Z,98671.88
2023-04-15T04:22:02.435Z,98678.47
2023-04-15T04:24:29.211Z,98674.16
2023-04-15T04:26:57.491Z,98686.22
2023-04-15T04:29:24.453Z,98682.16
2023-04-15T04:31:51.286Z,98682.53
2023-04-15T04:34:18.417Z,98686.88
2023-04-15T04:36:45.147Z,98681.91
2023-04-15T04:39:11.887Z,98678.03
2023-04-15T04:41:38.702Z,98684.16
2023-04-15T04:44:05.527Z,98681.28
2023-04-15T04:46:32.264Z,98683.72
2023-04-15T04:48:59.104Z,98685.78
2023-04-15T04:51:26.565Z,98686.19
2023-04-15T04:53:54.135Z,98681.28
2023-04-15T04:56:21.274Z,98684.59
2023-04-15T04:58:48.220Z,98674.78
2023-04-15T05:01:15.259Z,98677.66
2023-04-15T05:03:42.193Z,98678.94
2023-04-15T05:06:09.155Z,98671.34
2023-04-15T05:08:37.336Z,98677.31
2023-04-15T05:11:05.415Z,98677.34
2023-04-15T05:13:32.217Z,98671.59
2023-04-15T05:15:59.103Z,98680.22
2023-04-15T05:18:26.139Z,98675.72
2023-04-15T05:20:53.038Z,98676.78
2023-04-15T05:23:19.816Z,98677.59
2023-04-15T05:25:46.568Z,98672.88
2023-04-15T05:28:13.293Z,98671.25
2023-04-15T05:30:40.733Z,98673.16
2023-04-15T05:33:07.545Z,98673.97
2023-04-15T05:35:34.305Z,98682.81
2023-04-15T05:38:01.394Z,98679.56
2023-04-15T05:40:28.462Z,98686.13
2023-04-15T05:42:55.727Z,98678.38
2023-04-15T05:45:22.836Z,98679.59
2023-04-15T05:47:54.503Z,98684.34
2023-04-15T05:50:21.587Z,98695.63
2023-04-15T05:52:48.435Z,98694.41
2023-04-15T05:55:15.228Z,98689.06
2023-04-15T05:57:42.003Z,98692.97
2023-04-15T06:00:09.714Z,98692.53
2023-04-15T06:02:36.844Z,98686.59
2023-04-15T06:05:04.266Z,98691.09
2023-04-15T06:07:31.213Z,98687.41
2023-04-15T06:09:57.988Z,98686.56
2023-04-15T06:12:24.745Z,98687.59
2023-04-15T06:14:51.551Z,98683.25
2023-04-15T06:17:19.568Z,98689.41
2023-04-15T06:19:47.385Z,98694.78
2023-04-15T06:22:14.247Z,98685.66
2023-04-15T06:24:41.373Z,98681.75
2023-04-15T06:27:08.302Z,98685.84
2023-04-15T06:29:35.084Z,98687.03
2023-04-15T06:32:01.864Z,98689.44
2023-04-15T06:34:28.700Z,98689.56
2023-04-15T06:36:55.649Z,98681.56
2023-04-15T06:39:22.403Z,98695.34
2023-04-15T06:41:49.281Z,98694.50
2023-04-15T06:44:16.488Z,98697.38
2023-04-15T06:46:43.204Z,98699.69
2023-04-15T06:49:09.982Z,98702.22
2023-04-15T06:51:36.956Z,98706.94
2023-04-15T06:54:06.255Z,98698.94
2023-04-15T06:56:33.780Z,98702.28
2023-04-15T06:59:01.185Z,98698.69
2023-04-15T07:01:28.635Z,98698.19
2023-04-15T07:03:55.541Z,98704.81
2023-04-15T07:06:22.487Z,98703.94
2023-04-15T07:08:49.237Z,98706.63
2023-04-15T07:11:16.056Z,98702.16
2023-04-15T07:13:42.751Z,98702.16
2023-04-15T07:16:09.699Z,98707.47
2023-04-15T07:18:36.492Z,98711.50
2023-04-15T07:21:03.436Z,98705.00
2023-04-15T07:23:30.356Z,98707.84
2023-04-15T07:25:57.694Z,98713.97
2023-04-15T07:28:24.542Z,98707.72
2023-04-15T07:30:54.435Z,98709.47
2023-04-15T07:33:21.785Z,98710.03
2023-04-15T07:35:48.544Z,98710.97
2023-04-15T07:38:15.267Z,98710.75
2023-04-15T07:40:42.660Z,98708.63
2023-04-15T07:43:10.255Z,98708.19
2023-04-15T07:45:37.051Z,98696.22
2023-04-15T07:48:04.121Z,98707.34
2023-04-15T07:50:31.490Z,98711.34
2023-04-15T07:52:58.359Z,98712.00
2023-04-15T07:55:26.165Z,98709.44
2023-04-15T07:57:54.017Z,98707.94
2023-04-15T08:00:21.015Z,98707.56
2023-04-15T08:02:48.639Z,98707.00
2023-04-15T08:05:16.269Z,98711.56
2023-04-15T08:07:43.125Z,98712.50
2023-04-15T08:10:10.400Z,98712.97
2023-04-15T08:12:37.440Z,98712.25
2023-04-15T08:15:04.648Z,98718.28
2023-04-15T08:17:31.452Z,98712.03
2023-04-15T08:19:58.241Z,98716.13
2023-04-15T08:22:25.217Z,98720.25
2023-04-15T08:24:52.279Z,98716.66
2023-04-15T08:27:19.184Z,98727.72
2023-04-15T08:29:46.021Z,98731.97
2023-04-15T08:32:13.121Z,98724.66
2023-04-15T08:34:40.030Z,98726.16
2023-04-15T08:37:07.292Z,98722.34
2023-04-15T08:39:34.060Z,98728.75
2023-04-15T08:42:07.527Z,98725.06
2023-04-15T08:44:35.766Z,98733.44
2023-04-15T08:47:03.524Z,98737.31
2023-04-15T08:49:30.974Z,98744.78
2023-04-15T08:52:01.749Z,98742.84
2023-04-15T08:54:28.837Z,98749.59
2023-04-15T08:56:59.212Z,98755.69
2023-04-15T08:59:26.903Z,98748.72
2023-04-15T09:01:55.582Z,98746.50
2023-04-15T09:04:22.516Z,98744.50
2023-04-15T09:06:49.273Z,98751.97
2023-04-15T09:09:16.090Z,98747.59
2023-04-15T09:11:43.426Z,98749.31
2023-04-15T09:14:10.181Z,98742.72
2023-04-15T09:16:58.975Z,98744.59
2023-04-15T09:19:25.980Z,98741.31
2023-04-15T09:21:58.015Z,98744.81
2023-04-15T09:24:27.367Z,98750.78
2023-04-15T09:26:56.241Z,98741.66
2023-04-15T09:29:26.928Z,98743.84
2023-04-15T09:31:53.966Z,98748.91
2023-04-15T09:34:21.869Z,98743.53
2023-04-15T09:36:50.949Z,98758.38
2023-04-15T09:39:18.409Z,98766.75
2023-04-15T09:41:45.514Z,98763.31
2023-04-15T09:44:41.428Z,98774.59
2023-04-15T09:47:08.315Z,98780.53
2023-04-15T09:49:35.231Z,98781.72
2023-04-15T09:52:06.142Z,98783.50
2023-04-15T09:54:37.659Z,98780.81
2023-04-15T09:57:10.535Z,98775.03
2023-04-15T09:59:37.478Z,98776.06
2023-04-15T10:02:06.797Z,98770.81
2023-04-15T10:04:39.751Z,98771.47
2023-04-15T10:07:08.673Z,98765.09
2023-04-15T10:09:39.668Z,98775.63
2023-04-15T10:12:06.615Z,98771.06
2023-04-15T10:14:36.057Z,98768.34
2023-04-15T10:17:05.805Z,98762.97
2023-04-15T10:19:34.593Z,98756.38
2023-04-15T10:22:01.821Z,98775.78
2023-04-15T10:24:31.460Z,98765.56
2023-04-15T10:26:59.747Z,98770.94
2023-04-15T10:29:29.680Z,98780.09
2023-04-15T10:31:57.251Z,98771.41
2023-04-15T10:34:25.053Z,98776.75
2023-04-15T10:36:52.368Z,98781.19
2023-04-15T10:39:37.843Z,98782.53
2023-04-15T10:42:11.135Z,98778.47
2023-04-15T10:44:39.408Z,98782.81
2023-04-15T10:47:15.812Z,98786.53
2023-04-15T10:49:51.081Z,98779.81
2023-04-15T10:52:23.134Z,98788.19
2023-04-15T10:54:50.119Z,98785.94
2023-04-15T10:57:23.664Z,98786.63
2023-04-15T11:00:05.036Z,98791.66
2023-04-15T11:03:00.277Z,98796.59
2023-04-15T11:05:42.347Z,98808.00
2023-04-15T11:08:13.881Z,98821.50
2023-04-15T11:10:41.455Z,98811.28
2023-04-15T11:13:11.190Z,98810.53
2023-04-15T11:15:42.940Z,98816.88
2023-04-15T11:18:15.338Z,98812.28
2023-04-15T11:20:48.327Z,98814.88
2023-04-15T11:23:16.225Z,98827.84
2023-04-15T11:25:44.226Z,98819.59
2023-04-15T11:28:12.561Z,98829.28
2023-04-15T11:30:40.414Z,98833.47
2023-04-15T11:33:09.427Z,98830.09
2023-04-15T11:35:36.425Z,98839.91
2023-04-15T11:38:04.464Z,98840.47
2023-04-15T11:40:33.700Z,98844.13
2023-04-15T11:43:10.794Z,98843.75
2023-04-15T11:45:38.900Z,98846.75
2023-04-15T11:48:12.549Z,98845.31
2023-04-15T11:50:41.459Z,98845.06
2023-04-15T11:53:10.350Z,98838.91
2023-04-15T11:55:51.312Z,98852.19
2023-04-15T11:58:20.707Z,98847.28
2023-04-15T12:00:54.344Z,98849.38
2023-04-15T12:03:32.160Z,98859.91
2023-04-15T12:06:12.585Z,98862.34
2023-04-15T12:09:06.782Z,98863.84
2023-04-15T12:11:34.943Z,98863.75
2023-04-15T12:14:09.885Z,98867.25
2023-04-15T12:16:48.170Z,98866.09
2023-04-15T12:19:45.580Z,98882.66
2023-04-15T12:22:15.567Z,98885.16
2023-04-15T12:24:48.921Z,98888.59
2023-04-15T12:27:17.250Z,98886.94
2023-04-15T12:29:44.491Z,98887.81
2023-04-15T12:32:16.076Z,98891.78
2023-04-15T12:34:45.139Z,98894.06
2023-04-15T12:37:16.219Z,98898.28
2023-04-15T12:39:44.834Z,98904.72
2023-04-15T12:42:12.181Z,98898.13
2023-04-15T12:44:39.947Z,98902.13
2023-04-15T12:47:08.285Z,98903.28
2023-04-15T12:49:35.365Z,98915.13
2023-04-15T12:52:03.620Z,98913.47
2023-04-15T12:54:31.758Z,98911.75
2023-04-15T12:56:59.708Z,98913.47
2023-04-15T12:59:26.981Z,98909.66
2023-04-15T13:01:54.675Z,98915.97
2023-04-15T13:04:22.243Z,98922.84
2023-04-15T13:06:49.447Z,98915.00
2023-04-15T13:09:16.281Z,98919.88
2023-04-15T13:11:43.377Z,98922.84
2023-04-15T13:14:13.365Z,98926.19
2023-04-15T13:16:41.066Z,98928.97
2023-04-15T13:19:07.973Z,98924.63
2023-04-15T13:21:36.224Z,98925.38
2023-04-15T13:24:04.261Z,98922.53
2023-04-15T13:26:32.145Z,98917.69
2023-04-15T13:29:00.135Z,98919.56
2023-04-15T13:31:27.598Z,98924.50
2023-04-15T13:33:54.917Z,98924.69
2023-04-15T13:36:21.714Z,98927.53
2023-04-15T13:38:50.996Z,98937.69
2023-04-15T13:41:18.244Z,98939.47
2023-04-15T13:43:44.992Z,98957.91
2023-04-15T13:46:11.889Z,98957.66
2023-04-15T13:48:38.777Z,98954.53
2023-04-15T13:51:05.805Z,98962.00
2023-04-15T13:53:38.890Z,98962.16
2023-04-15T13:56:10.127Z,98968.81
2023-04-15T13:58:38.112Z,98970.00
2023-04-15T14:01:08.937Z,98967.44
2023-04-15T14:03:37.017Z,98955.56
2023-04-15T14:06:05.526Z,98963.47
2023-04-15T14:08:32.440Z,98955.28
2023-04-15T14:10:59.413Z,98959.31
2023-04-15T14:13:26.415Z,98963.41
2023-04-15T14:15:53.337Z,98969.69
2023-04-15T14:18:20.521Z,98966.63
2023-04-15T14:20:47.582Z,98984.91
2023-04-15T14:23:14.348Z,98992.06
2023-04-15T14:25:41.416Z,98977.59
2023-04-15T14:28:08.522Z,98980.34
2023-04-15T14:30:36.221Z,98991.94
2023-04-15T14:33:04.157Z,98987.03
2023-04-15T14:35:31.242Z,98994.66
2023-04-15T14:37:58.108Z,98994.56
2023-04-15T14:40:24.850Z,98994.06
2023-04-15T14:42:51.695Z,98996.22
2023-04-15T14:45:18.634Z,99006.78
2023-04-15T14:47:45.635Z,99009.56
2023-04-15T14:50:13.007Z,99010.38
2023-04-15T14:52:40.027Z,99011.25
2023-04-15T14:55:08.904Z,99013.72
2023-04-15T14:57:36.272Z,99022.38
2023-04-15T15:00:04.614Z,99019.09
2023-04-15T15:02:39.391Z,99024.22
2023-04-15T15:05:08.016Z,99027.75
2023-04-15T15:07:37.407Z,99035.19
2023-04-15T15:10:04.854Z,99031.34
2023-04-15T15:12:32.874Z,99036.69
2023-04-15T15:15:00.468Z,99040.97
2023-04-15T15:17:28.763Z,99048.81
2023-04-15T15:19:55.795Z,99047.38
2023-04-15T15:22:22.538Z,99050.25
2023-04-15T15:24:49.324Z,99053.75
2023-04-15T15:27:16.404Z,99052.78
2023-04-15T15:29:43.501Z,99060.78
2023-04-15T15:32:10.600Z,99062.03
2023-04-15T15:34:37.717Z,99067.44
2023-04-15T15:37:04.473Z,99068.47
2023-04-15T15:39:32.716Z,99070.34
2023-04-15T15:41:59.455Z,99069.94
2023-04-15T15:44:26.554Z,99073.03
2023-04-15T15:46:53.993Z,99078.19
2023-04-15T15:49:21.125Z,99087.25
2023-04-15T15:51:48.034Z,99087.72
2023-04-15T15:54:14.837Z,99081.50
2023-04-15T15:56:42.374Z,99083.16
2023-04-15T15:59:09.143Z,99088.13
2023-04-15T16:01:36.208Z,99094.72
2023-04-15T16:04:03.062Z,99088.09
2023-04-15T16:06:29.974Z,99098.84
2023-04-15T16:08:56.720Z,99103.19
2023-04-15T16:11:23.771Z,99095.50
2023-04-15T16:13:51.262Z,99104.22
2023-04-15T16:16:18.062Z,99099.03
2023-04-15T16:18:44.892Z,99103.81
2023-04-15T16:21:11.716Z,99112.03
2023-04-15T16:23:38.574Z,99114.91
2023-04-15T16:26:05.504Z,99114.31
2023-04-15T16:28:32.413Z,99119.47
2023-04-15T16:30:59.619Z,99118.84
2023-04-15T16:33:26.807Z,99120.69
2023-04-15T16:35:53.635Z,99127.72
2023-04-15T16:38:20.725Z,99129.16
2023-04-15T16:40:47.684Z,99127.72
2023-04-15T16:43:14.396Z,99129.38
2023-04-15T16:45:41.251Z,99140.50
2023-04-15T16:48:08.005Z,99151.22
2023-04-15T16:50:37.975Z,99142.16
2023-04-15T16:53:04.765Z,99135.16
2023-04-15T16:55:31.944Z,99139.28
2023-04-15T16:58:02.246Z,99150.81
2023-04-15T17:00:32.015Z,99159.06
2023-04-15T17:03:00.976Z,99154.13
2023-04-15T17:05:28.344Z,99159.91
2023-04-15T17:07:55.753Z,99152.88
2023-04-15T17:10:23.134Z,99154.13
2023-04-15T17:12:52.373Z,99166.50
2023-04-15T17:15:20.281Z,99172.25
2023-04-15T17:17:47.126Z,99175.75
2023-04-15T17:20:14.035Z,99173.47
2023-04-15T17:22:40.916Z,99183.38
2023-04-15T17:25:08.644Z,99186.69
2023-04-15T17:27:36.247Z,99182.94
2023-04-15T17:30:03.284Z,99194.06
2023-04-15T17:32:34.634Z,99195.94
2023-04-15T17:35:03.837Z,99192.03
2023-04-15T17:37:30.727Z,99205.19
2023-04-15T17:39:57.464Z,99198.81
2023-04-15T17:42:24.270Z,99205.19
2023-04-15T17:44:51.004Z,99205.63
2023-04-15T17:47:17.874Z,99208.69
2023-04-15T17:49:45.874Z,99211.19
2023-04-15T17:52:12.843Z,99214.69
2023-04-15T17:54:39.629Z,99220.06
2023-04-15T17:57:06.564Z,99225.63
2023-04-15T17:59:34.373Z,99227.25
2023-04-15T18:02:01.293Z,99237.97
2023-04-15T18:04:28.751Z,99232.81
2023-04-15T18:06:55.543Z,99234.47
2023-04-15T18:09:22.406Z,99233.03
2023-04-15T18:11:49.378Z,99241.25
2023-04-15T18:14:26.985Z,99239.81
2023-04-15T18:17:01.332Z,99242.28
2023-04-15T18:19:32.278Z,99242.72
2023-04-15T18:22:00.741Z,99253.00
2023-04-15T18:24:28.264Z,99253.19
2023-04-15T18:26:55.048Z,99262.06
2023-04-15T18:29:22.173Z,99259.59
2023-04-15T18:31:49.097Z,99267.44
2023-04-15T18:34:16.104Z,99270.72
2023-04-15T18:36:43.084Z,99269.66
2023-04-15T18:39:10.685Z,99275.47
2023-04-15T18:41:37.560Z,99276.50
2023-04-15T18:44:04.401Z,99281.03
2023-04-15T18:46:31.460Z,99290.09
2023-04-15T18:48:58.346Z,99286.38
2023-04-15T18:51:25.326Z,99289.03
2023-04-15T18:53:52.098Z,99297.94
2023-04-15T18:56:18.961Z,99293.34
2023-04-15T18:59:08.883Z,99296.88
2023-04-15T19:01:32.739Z,99300.75
2023-04-15T19:04:02.652Z,99307.78
2023-04-15T19:06:29.606Z,99308.16
2023-04-15T19:08:58.778Z,99307.78
2023-04-15T19:11:26.528Z,99316.63
2023-04-15T19:13:53.417Z,99317.06
2023-04-15T19:16:20.507Z,99329.44
2023-04-15T19:18:47.374Z,99322.44
2023-04-15T19:21:14.328Z,99327.78
2023-04-15T19:23:43.837Z,99332.31
2023-04-15T19:26:12.027Z,99327.16
2023-04-15T19:28:38.907Z,99334.56
2023-04-15T19:31:05.967Z,99332.09
2023-04-15T19:33:33.502Z,99329.22
2023-04-15T19:36:05.569Z,99339.91
2023-04-15T19:38:35.159Z,99346.09
2023-04-15T19:41:02.170Z,99347.56
2023-04-15T19:43:29.044Z,99344.88
2023-04-15T19:45:56.297Z,99346.59
2023-04-15T19:48:24.818Z,99346.97
2023-04-15T19:50:51.969Z,99341.19
2023-04-15T19:53:18.747Z,99345.28
2023-04-15T19:55:46.229Z,99346.53
2023-04-15T19:58:13.024Z,99349.63
2023-04-15T20:00:39.799Z,99349.22
2023-04-15T20:03:06.830Z,99349.84
2023-04-15T20:05:33.663Z,99358.91
2023-04-15T20:08:01.843Z,99359.75
2023-04-15T20:10:28.663Z,99353.56
2023-04-15T20:12:55.655Z,99356.03
2023-04-15T20:15:24.255Z,99355.22
2023-04-15T20:17:51.646Z,99354.81
2023-04-15T20:20:18.839Z,99360.56
2023-04-15T20:22:45.617Z,99355.84
2023-04-15T20:25:12.653Z,99362.63
2023-04-15T20:27:39.904Z,99359.13
2023-04-15T20:30:07.770Z,99353.94
2023-04-15T20:32:36.240Z,99354.00
2023-04-15T20:35:05.302Z,99360.38
2023-04-15T20:37:33.740Z,99358.72
2023-04-15T20:40:01.127Z,99359.34
2023-04-15T20:42:28.307Z,99362.63
2023-04-15T20:44:55.046Z,99362.22
2023-04-15T20:47:21.932Z,99363.50
2023-04-15T20:49:48.767Z,99366.38
2023-04-15T20:52:15.493Z,99370.91
2023-04-15T20:54:42.269Z,99370.50
2023-04-15T20:57:09.303Z,99368.66
2023-04-15T20:59:36.255Z,99377.13
2023-04-15T21:02:03.397Z,99379.19
2023-04-15T21:04:30.296Z,99379.63
2023-04-15T21:06:57.099Z,99380.47
2023-04-15T21:09:25.052Z,99381.28
2023-04-15T21:14:21.600Z,99379.63
2023-04-15T21:16:48.567Z,99382.31
2023-04-15T21:19:15.329Z,99387.66
2023-04-15T21:21:42.052Z,99390.34
2023-04-15T21:24:08.973Z,99393.28
2023-04-15T21:26:38.308Z,99388.31
2023-04-15T21:29:05.509Z,99396.97
2023-04-15T21:31:33.492Z,99398.19
2023-04-15T21:34:00.207Z,99392.88
2023-04-15T21:36:27.166Z,99394.53
2023-04-15T21:38:53.898Z,99402.34
2023-04-15T21:41:20.700Z,99402.34
2023-04-15T21:43:47.528Z,99407.69
2023-04-15T21:46:23.686Z,99405.66
2023-04-15T21:48:53.418Z,99407.09
2023-04-15T21:51:20.476Z,99408.97
2023-04-15T21:53:47.318Z,99416.81
2023-04-15T21:56:14.134Z,99413.53
2023-04-15T21:58:41.056Z,99415.59
2023-04-15T22:01:07.926Z,99411.25
2023-04-15T22:03:35.487Z,99423.22
2023-04-15T22:06:05.665Z,99420.56
2023-04-15T22:08:38.677Z,99426.09
2023-04-15T22:11:26.999Z,99425.47
2023-04-15T22:13:54.689Z,99424.25
2023-04-15T22:16:21.678Z,99430.25
2023-04-15T22:18:48.578Z,99431.09
2023-04-15T22:21:15.380Z,99423.03
2023-04-15T22:23:42.449Z,99439.53
2023-04-15T22:26:09.605Z,99434.16
2023-04-15T22:28:36.426Z,99439.34
2023-04-15T22:31:03.986Z,99431.72
2023-04-15T22:33:30.853Z,99439.53
2023-04-15T22:35:57.640Z,99441.59
2023-04-15T22:38:24.992Z,99457.69
2023-04-15T22:40:54.161Z,99449.47
2023-04-15T22:43:21.094Z,99447.38
2023-04-15T22:45:51.407Z,99448.00
2023-04-15T22:48:19.094Z,99449.66
2023-04-15T22:50:46.375Z,99458.94
2023-04-15T22:53:13.281Z,99454.00
2023-04-15T22:55:40.002Z,99459.38
2023-04-15T22:58:06.800Z,99456.06
2023-04-15T23:00:33.575Z,99469.66
2023-04-15T23:03:00.621Z,99457.28
2023-04-15T23:05:27.880Z,99459.75
2023-04-15T23:07:54.928Z,99460.19
2023-04-15T23:10:21.803Z,99456.03
2023-04-15T23:12:48.768Z,99465.31
2023-04-15T23:15:15.707Z,99465.31
2023-04-15T23:17:42.865Z,99457.69
2023-04-15T23:20:10.413Z,99460.97
2023-04-15T23:22:37.981Z,99464.72
2023-04-15T23:25:06.031Z,99463.91
2023-04-15T23:27:32.955Z,99468.44
2023-04-15T23:29:59.713Z,99466.56
2023-04-15T23:32:27.522Z,99467.59
2023-04-15T23:34:54.440Z,99475.25
2023-04-15T23:37:21.367Z,99478.75
2023-04-15T23:39:48.131Z,99470.91
2023-04-15T23:42:14.961Z,99472.19
2023-04-15T23:44:41.735Z,99482.50
2023-04-15T23:47:08.499Z,99478.19
2023-04-15T23:49:36.810Z,99477.53
2023-04-15T23:52:03.969Z,99479.63
2023-04-15T23:54:30.826Z,99477.53
2023-04-15T23:56:57.629Z,99479.19
2023-04-15T23:59:24.419Z,99473.44
